AKDT,Max TemperatureF,Mean TemperatureF,Min TemperatureF,Max Dew PointF,MeanDew PointF,Min DewpointF,Max Humidity, Mean Humidity, Min Humidity, Max Sea Level PressureIn, Mean Sea Level PressureIn, Min Sea Level PressureIn, Max VisibilityMiles, Mean VisibilityMiles, Min VisibilityMiles, Max Wind SpeedMPH, Mean Wind SpeedMPH, Max Gust SpeedMPH,PrecipitationIn, CloudCover, Events, WindDirDegrees
2013-10-1,36,28,19,26,21,15,0,0,0,30.12,30.09,30.04,10,10,8,8,2,10,0.00,1,,248
2013-10-2,35,28,20,24,20,17,0,0,0,30.04,30.00,29.95,10,10,10,12,4,14,0.00,6,,22
2013-10-3,36,30,24,25,23,19,0,0,0,29.95,29.91,29.86,10,10,10,10,6,12,0.00,7,,343
2013-10-4,36,27,18,30,24,16,0,0,0,29.94,29.88,29.73,10,10,8,14,4,17,T,4,,127
2013-10-5,40,36,31,40,34,30,0,0,0,29.69,29.42,29.24,10,5,2,30,18,40,0.30,8,Rain-Snow,114
2013-10-6,40,40,39,40,38,36,0,0,0,29.52,29.38,29.26,10,6,1,15,9,18,0.05,8,Rain,153
2013-10-7,40,37,33,39,36,32,0,0,0,29.59,29.53,29.24,10,9,5,22,10,30,0.16,8,Rain,63
2013-10-8,40,38,36,34,33,31,0,0,0,29.18,28.91,28.75,10,9,5,28,20,37,0.26,8,Rain,354
2013-10-9,39,36,33,32,30,28,0,0,0,29.55,29.45,29.17,10,10,9,22,10,29,T,6,Rain-Snow,297
2013-10-10,42,38,33,41,37,28,0,0,0,29.44,29.23,29.14,10,5,1,25,16,35,0.48,8,Rain-Snow,105
2013-10-11,41,38,35,40,39,36,0,0,0,29.56,29.42,29.24,10,6,0,14,8,21,0.13,8,Fog-Rain,171
2013-10-12,44,40,35,41,37,32,0,0,0,29.56,29.44,29.40,10,7,2,21,12,25,0.10,7,Rain,49
2013-10-13,44,42,40,41,40,39,0,0,0,29.42,29.37,29.34,10,10,4,14,6,18,0.15,8,Rain,60
2013-10-14,40,38,36,40,37,34,0,0,0,29.55,29.47,29.39,10,6,0,14,7,18,0.01,8,Fog-Rain,160
2013-10-15,42,41,39,43,42,37,0,0,0,29.60,29.49,29.44,9,3,0,15,10,21,0.42,8,Fog-Rain,123
2013-10-16,43,43,42,43,42,39,0,0,0,29.62,29.60,29.59,10,9,2,20,16,25,0.05,8,Rain,135
2013-10-17,42,38,33,41,35,28,0,0,0,29.59,29.53,29.50,10,7,2,23,13,26,0.02,7,Rain-Snow,185
2013-10-18,41,35,29,39,30,25,0,0,0,29.50,29.35,29.11,10,10,7,17,10,24,0.17,7,Rain-Snow,44
2013-10-19,43,42,40,39,39,37,0,0,0,29.17,29.12,29.10,10,10,7,16,12,21,0.06,8,Rain,79
2013-10-20,41,40,39,40,38,36,0,0,0,29.59,29.35,29.18,10,6,1,24,15,32,0.23,8,Rain,128
2013-10-21,40,39,37,36,35,34,0,0,0,29.81,29.68,29.60,10,10,6,28,20,32,0.06,8,Rain,126
2013-10-22,40,37,34,36,35,34,0,0,0,30.11,29.98,29.82,10,10,7,22,12,29,0.08,8,Rain,133
2013-10-23,37,33,29,33,28,25,0,0,0,30.12,30.06,29.98,10,10,10,21,9,25,0.00,2,,42
2013-10-24,36,34,31,29,24,21,0,0,0,29.97,29.66,29.43,10,8,1,40,25,53,0.02,5,Snow,37
2013-10-25,41,37,33,38,34,28,0,0,0,29.74,29.55,29.43,10,8,2,23,18,30,0.23,8,Rain-Snow,86
2013-10-26,42,40,38,40,38,32,0,0,0,30.05,29.94,29.77,10,6,1,25,17,33,0.04,7,Rain,132
2013-10-27,42,39,35,39,37,32,0,0,0,29.81,29.61,29.49,10,8,2,30,18,40,0.26,7,Rain,107
2013-10-28,41,37,33,37,33,30,0,0,0,29.47,29.27,29.18,10,10,10,16,5,20,0.00,5,,341
2013-10-29,37,32,26,31,27,23,0,0,0,29.48,29.43,29.29,10,10,10,12,5,15,0.00,2,,341
2013-10-30,31,25,18,22,20,17,0,0,0,29.49,29.43,29.40,10,10,10,9,3,12,0.00,4,,357
2013-10-31,31,24,17,25,20,14,0,0,0,29.85,29.68,29.52,10,10,5,9,2,10,T,6,,25